Sacramento, CA

1:01 PM PDT on April 26, 2015 (GMT -0700)
Tuscaro Apartments (Natomas) | | Change Station
CLOSE
Current Station
Personal Weather Station
Location: Sacramento, CA
Elevation: 16 ft
Nearby Weather Stations

Elev 16 ft 38.65 °N, 121.51 °W | Updated 16 seconds ago

Clear
Clear
71.3 °F
Feels Like 77 °F
N
0.0
Wind Variable Wind from NNE
Gusts 1.0 mph

Today
High -- | Low -- °F
--% Chance of Precip.
Yesterday
High -- | Low -- °F
Precip. -- in
6:15 AM 7:53 PM
First Quarter, 58% visible
Pressure 30.09 in
Visibility 10.0 miles
Clouds Scattered Clouds 25000 ft
Heat Index 77 °F
Dew Point 50 °F
Humidity 47%
Rainfall 0.00 in
Snow Depth Not available.
UV 8 out of 12
Pollen 8.40 out of 12
Air Quality Not available.
Flu Activity Sporadic
METAR KSMF 261953Z 35009KT 10SM SCT250 22/08 A3009 RMK AO2 SLP190 T02220078

More Conditions Fewer Conditions

Pressure 30.09 in
Visibility 10.0 miles
Clouds Scattered Clouds 25000 ft
Heat Index 77 °F
Dew Point 50 °F
Humidity 47%
Rainfall 0.00 in
Snow Depth Not available.
UV 8 out of 12
Pollen 8.40 out of 12
Air Quality Not available.
Flu Activity Sporadic
METAR KSMF 261953Z 35009KT 10SM SCT250 22/08 A3009 RMK AO2 SLP190 T02220078

More Conditions Fewer Conditions

The full scope of the disaster following a powerful 7.8-magnitude earthquake in Nepal may not come into view for days, but global charities are already sending emergency aid. Click to see how you can help.

10-Day Weather Forecast

Almanac

Astronomy

Apr. 26, 2015 Rise Set
Actual Time
Civil Twilight
Nautical Twilight
Astronomical Twilight
Moon
Length of Visible Light
Length of Day
Tomorrow will be .
, % of the Moon is Illuminated

Today's Extremes

State Highs State Lows

Community

WunderPhotos

Upload Photos

1,817,107 photos uploaded!

WunderBlogs® & News

Nearby

Air Quality

  Air Quality AQ Index Pollutant
Not available.

Snow Depth

Station Depth Elevation

Earthquake Activity

City Distance Mag. Time & Date
Minimum magnitude displayed is 2.5.

Coastal Water Temperatures

Place Temperature

Stations

Nearby Weather Stations

Station Location Temp. Windchill Dew Point Humidity Wind Precip. Elev Updated Type